createdAt,value
2018-06-29T00:00:08.913Z,28.37
2018-06-29T00:02:36.512Z,28.50
2018-06-29T00:05:04.528Z,32.97
2018-06-29T00:07:34.753Z,29.90
2018-06-29T00:10:02.400Z,27.20
2018-06-29T00:12:29.935Z,34.10
2018-06-29T00:14:57.586Z,25.60
2018-06-29T00:17:25.148Z,26.87
2018-06-29T00:19:52.665Z,26.17
2018-06-29T00:22:20.236Z,27.10
2018-06-29T00:24:47.787Z,27.60
2018-06-29T00:27:15.299Z,25.70
2018-06-29T00:29:42.859Z,29.17
2018-06-29T00:32:10.395Z,29.53
2018-06-29T00:34:37.949Z,26.53
2018-06-29T00:37:05.503Z,24.43
2018-06-29T00:39:33.019Z,26.83
2018-06-29T00:42:00.567Z,32.00
2018-06-29T00:44:28.177Z,29.10
2018-06-29T00:46:55.693Z,26.90
2018-06-29T00:49:23.240Z,30.33
2018-06-29T00:51:50.819Z,28.23
2018-06-29T00:54:18.356Z,26.90
2018-06-29T00:56:45.948Z,28.83
2018-06-29T00:59:13.902Z,26.43
2018-06-29T01:01:41.455Z,24.20
2018-06-29T01:04:09.019Z,26.10
2018-06-29T01:06:36.572Z,24.40
2018-06-29T01:09:07.007Z,25.37
2018-06-29T01:11:34.536Z,26.50
2018-06-29T01:14:02.114Z,25.97
2018-06-29T01:16:29.804Z,28.10
2018-06-29T01:18:57.357Z,29.13
2018-06-29T01:21:24.903Z,32.33
2018-06-29T01:23:52.518Z,36.93
2018-06-29T01:26:20.044Z,27.70
2018-06-29T01:28:47.598Z,34.80
2018-06-29T01:31:15.131Z,31.83
2018-06-29T01:33:42.682Z,34.47
2018-06-29T01:36:10.226Z,28.67
2018-06-29T01:38:37.735Z,30.57
2018-06-29T01:41:05.475Z,30.27
2018-06-29T01:43:33.024Z,31.00
2018-06-29T01:46:00.601Z,33.13
2018-06-29T01:48:28.119Z,26.50
2018-06-29T01:50:55.683Z,31.90
2018-06-29T01:53:23.209Z,32.13
2018-06-29T01:55:50.760Z,36.87
2018-06-29T01:58:18.299Z,36.37
2018-06-29T02:00:45.858Z,34.80
2018-06-29T02:03:13.412Z,30.53
2018-06-29T02:05:40.962Z,31.00
2018-06-29T02:08:08.642Z,31.77
2018-06-29T02:10:36.089Z,34.63
2018-06-29T02:13:03.609Z,33.43
2018-06-29T02:15:31.141Z,38.83
2018-06-29T02:17:58.697Z,38.10
2018-06-29T02:20:26.245Z,33.37
2018-06-29T02:22:53.779Z,34.10
2018-06-29T02:25:21.354Z,35.30
2018-06-29T02:27:48.943Z,34.60
2018-06-29T02:30:16.503Z,35.67
2018-06-29T02:32:44.052Z,40.70
2018-06-29T02:35:11.589Z,39.23
2018-06-29T02:37:39.122Z,37.97
2018-06-29T02:40:06.742Z,37.87
2018-06-29T02:42:34.301Z,35.43
2018-06-29T02:45:01.836Z,36.23
2018-06-29T02:47:29.393Z,34.10
2018-06-29T02:49:56.982Z,35.77
2018-06-29T02:52:24.489Z,35.90
2018-06-29T02:54:51.989Z,35.70
2018-06-29T02:57:19.501Z,37.97
2018-06-29T02:59:47.821Z,39.37
2018-06-29T03:02:15.398Z,35.93
2018-06-29T03:04:42.900Z,34.23
2018-06-29T03:07:10.446Z,37.87
2018-06-29T03:09:38.086Z,33.30
2018-06-29T03:12:05.612Z,31.00
2018-06-29T03:14:33.187Z,36.80
2018-06-29T03:17:00.698Z,41.10
2018-06-29T03:19:28.259Z,32.77
2018-06-29T03:21:55.818Z,36.13
2018-06-29T03:24:23.365Z,31.70
2018-06-29T03:26:50.926Z,38.23
2018-06-29T03:29:18.466Z,36.10
2018-06-29T03:31:46.007Z,37.37
2018-06-29T03:34:13.516Z,38.07
2018-06-29T03:36:41.036Z,36.27
2018-06-29T03:39:09.799Z,40.03
2018-06-29T03:41:37.398Z,39.63
2018-06-29T03:44:05.023Z,38.30
2018-06-29T03:46:32.587Z,40.20
2018-06-29T03:49:00.160Z,40.23
2018-06-29T03:51:28.143Z,36.00
2018-06-29T03:53:55.692Z,34.03
2018-06-29T03:56:23.282Z,52.13
2018-06-29T03:58:50.815Z,38.60
2018-06-29T04:01:18.358Z,43.90
2018-06-29T04:03:45.867Z,42.07
2018-06-29T04:06:13.432Z,43.57
2018-06-29T04:08:41.143Z,37.77
2018-06-29T04:11:08.697Z,34.97
2018-06-29T04:13:36.307Z,36.17
2018-06-29T04:16:03.873Z,35.53
2018-06-29T04:18:31.409Z,34.30
2018-06-29T04:20:58.933Z,36.27
2018-06-29T04:23:26.521Z,34.27
2018-06-29T04:25:54.101Z,33.93
2018-06-29T04:28:21.647Z,35.23
2018-06-29T04:30:49.135Z,29.87
2018-06-29T04:33:16.685Z,32.17
2018-06-29T04:35:44.233Z,32.80
2018-06-29T04:38:11.751Z,30.83
2018-06-29T04:40:39.315Z,32.40
2018-06-29T04:43:06.844Z,30.90
2018-06-29T04:45:34.389Z,28.13
2018-06-29T04:48:01.959Z,28.80
2018-06-29T04:50:29.473Z,33.10
2018-06-29T04:52:57.027Z,28.33
2018-06-29T04:55:24.562Z,31.57
2018-06-29T04:57:52.163Z,28.60
2018-06-29T05:00:19.763Z,29.17
2018-06-29T05:02:47.264Z,34.97
2018-06-29T05:05:14.748Z,32.97
2018-06-29T05:07:42.309Z,35.20
2018-06-29T05:10:09.871Z,40.23
2018-06-29T05:12:37.410Z,36.20
2018-06-29T05:15:05.082Z,36.93
2018-06-29T05:17:32.607Z,37.90
2018-06-29T05:20:00.156Z,40.37
2018-06-29T05:22:27.712Z,39.30
2018-06-29T05:24:55.258Z,40.73
2018-06-29T05:27:22.828Z,40.33
2018-06-29T05:29:50.374Z,44.13
2018-06-29T05:32:17.930Z,45.00
2018-06-29T05:34:45.480Z,46.10
2018-06-29T05:37:12.994Z,40.63
2018-06-29T05:39:40.534Z,45.70
2018-06-29T05:42:08.070Z,42.27
2018-06-29T05:44:35.608Z,46.37
2018-06-29T05:47:03.200Z,41.20
2018-06-29T05:49:30.786Z,35.83
2018-06-29T05:51:58.394Z,49.93
2018-06-29T05:54:25.945Z,44.27
2018-06-29T05:56:53.498Z,48.00
2018-06-29T05:59:21.057Z,48.30
2018-06-29T06:01:48.638Z,34.50
2018-06-29T06:04:16.195Z,39.13
2018-06-29T06:06:43.743Z,34.70
2018-06-29T06:09:11.926Z,37.20
2018-06-29T06:11:39.878Z,28.33
2018-06-29T06:14:07.437Z,22.17
2018-06-29T06:16:34.967Z,20.27
2018-06-29T06:19:14.143Z,21.13
2018-06-29T06:21:41.763Z,18.60
2018-06-29T06:24:09.417Z,16.23
2018-06-29T06:26:37.086Z,14.17
2018-06-29T06:29:04.633Z,14.07
2018-06-29T06:31:32.180Z,15.23
2018-06-29T06:33:59.746Z,14.73
2018-06-29T06:36:27.302Z,16.37
2018-06-29T06:38:54.856Z,15.80
2018-06-29T06:41:22.430Z,16.97
2018-06-29T06:43:49.982Z,15.77
2018-06-29T06:46:17.525Z,14.77
2018-06-29T06:48:45.082Z,12.77
2018-06-29T06:51:12.599Z,17.10
2018-06-29T06:53:40.124Z,13.33
2018-06-29T06:56:07.674Z,13.07
2018-06-29T06:58:35.542Z,14.40
2018-06-29T07:01:03.241Z,13.73
2018-06-29T07:03:30.768Z,16.97
2018-06-29T07:05:58.332Z,13.87
2018-06-29T07:08:25.996Z,13.90
2018-06-29T07:10:53.506Z,19.00
2018-06-29T07:13:21.059Z,15.27
2018-06-29T07:15:48.591Z,13.50
2018-06-29T07:18:16.185Z,12.50
2018-06-29T07:20:43.754Z,9.63
2018-06-29T07:23:11.335Z,12.53
2018-06-29T07:25:38.862Z,14.23
2018-06-29T07:28:06.377Z,16.70
2018-06-29T07:30:33.890Z,14.03
2018-06-29T07:33:01.408Z,21.07
2018-06-29T07:35:28.993Z,17.50
2018-06-29T07:37:56.600Z,24.10
2018-06-29T07:40:24.184Z,21.13
2018-06-29T07:42:51.718Z,21.50
2018-06-29T07:45:19.267Z,26.33
2018-06-29T07:47:46.857Z,24.23
2018-06-29T07:50:14.413Z,26.47
2018-06-29T07:52:42.006Z,30.10
2018-06-29T07:55:09.577Z,22.57
2018-06-29T07:57:37.137Z,28.87
2018-06-29T08:00:04.971Z,30.60
2018-06-29T08:02:32.581Z,28.10
2018-06-29T08:05:00.199Z,41.97
2018-06-29T08:07:27.728Z,34.40
2018-06-29T08:09:55.308Z,32.43
2018-06-29T08:12:22.884Z,29.67
2018-06-29T08:14:50.500Z,37.03
2018-06-29T08:17:18.294Z,30.07
2018-06-29T08:19:45.864Z,36.07
2018-06-29T08:22:13.717Z,34.77
2018-06-29T08:24:52.570Z,42.20
2018-06-29T08:27:20.188Z,34.30
2018-06-29T08:29:47.734Z,29.50
2018-06-29T08:32:15.284Z,36.80
2018-06-29T08:34:42.795Z,35.97
2018-06-29T08:37:10.365Z,41.13
2018-06-29T08:39:37.905Z,39.23
2018-06-29T08:42:05.478Z,39.37
2018-06-29T08:44:33.076Z,32.60
2018-06-29T08:47:00.647Z,44.03
2018-06-29T08:49:28.223Z,56.57
2018-06-29T08:51:55.831Z,43.97
2018-06-29T08:54:23.382Z,43.17
2018-06-29T08:56:50.950Z,35.23
2018-06-29T08:59:18.487Z,38.60
2018-06-29T09:01:46.082Z,37.67
2018-06-29T09:04:13.629Z,38.97
2018-06-29T09:06:41.233Z,34.20
2018-06-29T09:09:09.058Z,32.50
2018-06-29T09:11:36.617Z,39.77
2018-06-29T09:14:04.317Z,39.03
2018-06-29T09:16:31.891Z,31.33
2018-06-29T09:18:59.549Z,36.10
2018-06-29T09:21:27.138Z,33.10
2018-06-29T09:23:54.724Z,36.27
2018-06-29T09:26:22.278Z,38.67
2018-06-29T09:28:49.870Z,50.63
2018-06-29T09:31:17.437Z,35.50
2018-06-29T09:33:45.100Z,31.03
2018-06-29T09:36:12.735Z,38.77
2018-06-29T09:38:40.277Z,32.67
2018-06-29T09:41:07.805Z,39.53
2018-06-29T09:43:35.588Z,42.50
2018-06-29T09:46:03.295Z,41.37
2018-06-29T09:48:30.859Z,36.03
2018-06-29T09:50:58.455Z,42.77
2018-06-29T09:53:26.025Z,40.97
2018-06-29T09:55:53.607Z,41.43
2018-06-29T09:58:21.201Z,45.10
2018-06-29T10:00:55.408Z,50.17
2018-06-29T10:03:16.300Z,45.53
2018-06-29T10:05:43.925Z,48.77
2018-06-29T10:08:11.459Z,47.03
2018-06-29T10:10:39.017Z,47.93
2018-06-29T10:13:06.579Z,48.30
2018-06-29T10:15:34.155Z,51.60
2018-06-29T10:18:01.739Z,53.20
2018-06-29T10:20:29.310Z,52.43
2018-06-29T10:22:56.853Z,57.20
2018-06-29T10:25:24.561Z,54.90
2018-06-29T10:27:52.067Z,52.70
2018-06-29T10:30:19.595Z,54.83
2018-06-29T10:32:47.144Z,51.73
2018-06-29T10:35:14.685Z,55.87
2018-06-29T10:37:42.243Z,50.73
2018-06-29T10:40:09.843Z,46.30
2018-06-29T10:42:37.447Z,56.20
2018-06-29T10:45:05.153Z,53.73
2018-06-29T10:47:32.663Z,48.03
2018-06-29T10:50:00.242Z,50.50
2018-06-29T10:52:27.854Z,52.43
2018-06-29T10:54:55.396Z,48.23
2018-06-29T10:57:22.932Z,52.23
2018-06-29T10:59:50.478Z,51.90
2018-06-29T11:02:18.038Z,49.40
2018-06-29T11:04:45.572Z,47.67
2018-06-29T11:07:13.132Z,49.57
2018-06-29T11:09:40.700Z,55.53
2018-06-29T11:12:08.267Z,54.63
2018-06-29T11:14:35.842Z,49.10
2018-06-29T11:17:03.472Z,58.23
2018-06-29T11:19:31.015Z,49.33
2018-06-29T11:21:58.633Z,56.10
2018-06-29T11:24:26.184Z,56.80
2018-06-29T11:26:53.703Z,54.60
2018-06-29T11:29:21.284Z,52.10
2018-06-29T11:31:48.834Z,54.03
2018-06-29T11:34:16.430Z,53.67
2018-06-29T11:36:44.000Z,54.57
2018-06-29T11:39:13.252Z,59.07
2018-06-29T11:41:41.378Z,60.70
2018-06-29T11:44:08.994Z,52.60
2018-06-29T11:46:37.161Z,69.10
2018-06-29T11:49:04.770Z,61.60
2018-06-29T11:51:32.355Z,50.77
2018-06-29T11:53:59.994Z,57.67
2018-06-29T11:56:27.610Z,60.20
2018-06-29T11:58:55.192Z,54.10
2018-06-29T12:01:22.801Z,57.07
2018-06-29T12:03:50.388Z,55.53
2018-06-29T12:06:17.944Z,58.30
2018-06-29T12:08:45.570Z,54.50
2018-06-29T12:11:13.127Z,61.37
2018-06-29T12:13:40.668Z,52.67
2018-06-29T12:16:08.717Z,54.90
2018-06-29T12:18:36.478Z,52.30
2018-06-29T12:21:04.199Z,51.73
2018-06-29T12:23:31.827Z,48.33
2018-06-29T12:25:59.451Z,48.97
2018-06-29T12:28:27.151Z,46.60
2018-06-29T12:30:54.727Z,47.87
2018-06-29T12:33:22.328Z,52.37
2018-06-29T12:35:49.952Z,43.60
2018-06-29T12:38:17.536Z,47.70
2018-06-29T12:40:45.152Z,47.50
2018-06-29T12:43:13.137Z,50.70
2018-06-29T12:45:40.687Z,48.13
2018-06-29T12:48:08.238Z,46.33
2018-06-29T12:50:35.844Z,51.10
2018-06-29T12:53:03.473Z,44.40
2018-06-29T12:55:31.162Z,47.90
2018-06-29T12:57:58.773Z,49.00
2018-06-29T13:00:26.384Z,48.07
2018-06-29T13:02:53.924Z,46.87
2018-06-29T13:05:21.512Z,48.63
2018-06-29T13:07:49.153Z,47.07
2018-06-29T13:10:16.719Z,42.20
2018-06-29T13:12:44.306Z,46.20
2018-06-29T13:15:11.886Z,40.57
2018-06-29T13:17:39.503Z,50.43
2018-06-29T13:20:07.463Z,40.53
2018-06-29T13:22:35.054Z,44.70
2018-06-29T13:25:02.771Z,37.80
2018-06-29T13:27:30.363Z,40.30
2018-06-29T13:29:57.956Z,38.20
2018-06-29T13:32:25.526Z,39.40
2018-06-29T13:34:53.060Z,38.73
2018-06-29T13:37:20.595Z,42.97
2018-06-29T13:39:48.248Z,36.50
2018-06-29T13:42:15.827Z,35.33
2018-06-29T13:44:43.378Z,38.47
2018-06-29T13:47:10.981Z,35.03
2018-06-29T13:49:38.534Z,33.83
2018-06-29T13:52:06.111Z,33.30
2018-06-29T13:54:33.656Z,33.90
2018-06-29T13:57:01.216Z,42.40
2018-06-29T13:59:28.828Z,35.97
2018-06-29T14:01:56.415Z,36.37
2018-06-29T14:04:23.951Z,30.50
2018-06-29T14:06:51.527Z,33.70
2018-06-29T14:09:19.185Z,34.80
2018-06-29T14:11:46.742Z,35.03
2018-06-29T14:14:14.312Z,40.07
2018-06-29T14:16:41.869Z,33.40
2018-06-29T14:19:09.439Z,30.33
2018-06-29T14:21:37.015Z,33.23
2018-06-29T14:24:13.645Z,35.40
2018-06-29T14:26:41.249Z,33.73
2018-06-29T14:29:08.957Z,40.93
2018-06-29T14:31:36.483Z,30.47
2018-06-29T14:34:04.140Z,35.27
2018-06-29T14:36:31.697Z,32.40
2018-06-29T14:38:59.262Z,28.23
2018-06-29T14:41:27.565Z,31.57
2018-06-29T14:43:55.149Z,27.40
2018-06-29T14:46:22.828Z,25.67
2018-06-29T14:48:50.372Z,32.73
2018-06-29T14:51:17.898Z,26.20
2018-06-29T14:53:45.464Z,27.77
2018-06-29T14:56:13.036Z,25.83
2018-06-29T14:58:40.600Z,22.77
2018-06-29T15:01:08.191Z,23.07
2018-06-29T15:03:35.766Z,27.10
2018-06-29T15:06:03.360Z,25.37
2018-06-29T15:08:31.010Z,26.80
2018-06-29T15:10:58.586Z,32.13
2018-06-29T15:13:26.184Z,21.77
2018-06-29T15:15:53.781Z,25.70
2018-06-29T15:18:21.359Z,20.20
2018-06-29T15:20:48.966Z,31.00
2018-06-29T15:23:16.530Z,24.27
2018-06-29T15:25:44.135Z,23.23
2018-06-29T15:28:11.655Z,25.10
2018-06-29T15:30:39.568Z,25.60
2018-06-29T15:33:07.158Z,20.77
2018-06-29T15:35:34.726Z,25.20
2018-06-29T15:38:02.278Z,34.83
2018-06-29T15:40:29.844Z,19.97
2018-06-29T15:42:57.491Z,27.53
2018-06-29T15:45:25.110Z,24.63
2018-06-29T15:47:52.689Z,23.07
2018-06-29T15:50:20.262Z,21.00
2018-06-29T15:52:47.816Z,27.70
2018-06-29T15:55:15.421Z,26.33
2018-06-29T15:57:42.903Z,21.00
2018-06-29T16:00:10.758Z,19.80
2018-06-29T16:02:38.310Z,19.93
2018-06-29T16:05:06.470Z,24.63
2018-06-29T16:07:34.092Z,20.00
2018-06-29T16:10:01.666Z,18.43
2018-06-29T16:12:29.314Z,25.47
2018-06-29T16:14:56.892Z,22.37
2018-06-29T16:17:24.498Z,19.43
2018-06-29T16:19:52.022Z,21.60
2018-06-29T16:22:19.630Z,16.87
2018-06-29T16:24:47.209Z,17.17
2018-06-29T16:27:14.790Z,21.20
2018-06-29T16:29:42.390Z,16.70
2018-06-29T16:32:09.935Z,21.87
2018-06-29T16:34:37.593Z,17.57
2018-06-29T16:37:05.211Z,15.73
2018-06-29T16:39:32.791Z,16.40
2018-06-29T16:42:00.395Z,19.90
2018-06-29T16:44:27.997Z,21.77
2018-06-29T16:46:55.533Z,16.83
2018-06-29T16:49:23.171Z,18.70
2018-06-29T16:51:50.749Z,14.60
2018-06-29T16:54:18.316Z,21.63
2018-06-29T16:56:45.935Z,17.00
2018-06-29T16:59:13.524Z,16.30
2018-06-29T17:01:41.108Z,20.03
2018-06-29T17:04:08.651Z,17.33
2018-06-29T17:06:36.263Z,15.33
2018-06-29T17:09:05.597Z,20.00
2018-06-29T17:11:33.146Z,14.40
2018-06-29T17:14:00.690Z,14.13
2018-06-29T17:16:28.238Z,13.70
2018-06-29T17:18:55.893Z,16.60
2018-06-29T17:21:23.433Z,14.93
2018-06-29T17:23:51.027Z,15.47
2018-06-29T17:26:18.546Z,15.83
2018-06-29T17:28:46.156Z,15.60
2018-06-29T17:31:13.722Z,15.30
2018-06-29T17:33:41.387Z,13.97
2018-06-29T17:36:08.886Z,17.27
2018-06-29T17:38:36.444Z,13.00
2018-06-29T17:41:04.012Z,17.17
2018-06-29T17:43:31.598Z,12.73
2018-06-29T17:45:59.216Z,13.67
2018-06-29T17:48:26.892Z,11.13
2018-06-29T17:50:54.622Z,12.23
2018-06-29T17:53:22.174Z,15.33
2018-06-29T17:55:49.737Z,14.60
2018-06-29T17:58:17.328Z,14.50
2018-06-29T18:00:44.910Z,18.43
2018-06-29T18:03:12.522Z,13.27
2018-06-29T18:05:40.180Z,16.87
2018-06-29T18:08:07.787Z,11.47
2018-06-29T18:10:35.408Z,14.87
2018-06-29T18:13:03.134Z,14.23
2018-06-29T18:15:30.690Z,11.10
2018-06-29T18:17:58.439Z,13.23
2018-06-29T18:20:26.004Z,12.30
2018-06-29T18:22:53.634Z,12.10
2018-06-29T18:25:21.310Z,10.63
2018-06-29T18:27:48.989Z,10.67
2018-06-29T18:30:16.590Z,10.27
2018-06-29T18:32:44.211Z,13.47
2018-06-29T18:35:11.808Z,15.27
2018-06-29T18:37:39.645Z,18.63
2018-06-29T18:40:07.293Z,20.17
2018-06-29T18:42:34.973Z,21.53
2018-06-29T18:45:02.689Z,22.40
2018-06-29T18:47:30.293Z,17.70
2018-06-29T18:49:57.913Z,24.23
2018-06-29T18:52:25.507Z,19.50
2018-06-29T18:54:53.095Z,25.10
2018-06-29T18:57:20.689Z,27.77
2018-06-29T18:59:48.337Z,20.33
2018-06-29T19:02:15.931Z,21.10
2018-06-29T19:04:43.581Z,23.53
2018-06-29T19:07:11.300Z,21.50
2018-06-29T19:09:39.078Z,22.40
2018-06-29T19:12:06.744Z,25.20
2018-06-29T19:14:34.556Z,29.53
2018-06-29T19:17:03.011Z,31.30
2018-06-29T19:19:30.778Z,27.33
2018-06-29T19:21:58.451Z,25.10
2018-06-29T19:24:26.097Z,23.40
2018-06-29T19:26:54.169Z,25.43
2018-06-29T19:29:21.870Z,21.30
2018-06-29T19:31:49.558Z,21.97
2018-06-29T19:34:17.256Z,28.50
2018-06-29T19:36:44.955Z,24.57
2018-06-29T19:39:12.763Z,22.10
2018-06-29T19:41:41.780Z,22.37
2018-06-29T19:44:13.386Z,33.13
2018-06-29T19:46:41.093Z,26.50
2018-06-29T19:49:09.344Z,23.00
2018-06-29T19:51:37.713Z,31.70
2018-06-29T19:54:06.107Z,26.57
2018-06-29T19:56:33.780Z,38.70
2018-06-29T19:59:02.471Z,29.83
2018-06-29T20:01:30.225Z,27.87
2018-06-29T20:03:57.906Z,33.10
2018-06-29T20:06:25.584Z,35.53
2018-06-29T20:08:54.362Z,28.37
2018-06-29T20:11:22.174Z,33.43
2018-06-29T20:13:49.848Z,30.20
2018-06-29T20:16:17.496Z,25.33
2018-06-29T20:18:45.166Z,31.10
2018-06-29T20:21:12.832Z,31.90
2018-06-29T20:23:40.478Z,30.90
2018-06-29T20:26:08.112Z,21.40
2018-06-29T20:28:35.798Z,52.00
2018-06-29T20:31:03.558Z,31.70
2018-06-29T20:33:31.184Z,33.67
2018-06-29T20:35:58.814Z,20.40
2018-06-29T20:38:26.560Z,31.37
2018-06-29T20:40:54.133Z,24.13
2018-06-29T20:43:21.725Z,27.20
2018-06-29T20:45:49.345Z,26.80
2018-06-29T20:48:16.990Z,26.70
2018-06-29T20:50:44.619Z,31.13
2018-06-29T20:53:12.199Z,37.13
2018-06-29T20:55:39.837Z,35.57
2018-06-29T20:58:07.466Z,36.03
2018-06-29T21:00:35.109Z,35.30
2018-06-29T21:03:02.827Z,40.67
2018-06-29T21:05:30.614Z,31.57
2018-06-29T21:07:58.227Z,26.77
2018-06-29T21:10:25.792Z,26.83
2018-06-29T21:12:53.395Z,36.73
2018-06-29T21:15:20.959Z,33.33
2018-06-29T21:17:48.605Z,34.77
2018-06-29T21:20:16.186Z,29.27
2018-06-29T21:22:43.751Z,30.43
2018-06-29T21:25:11.337Z,34.80
2018-06-29T21:27:38.869Z,26.27
2018-06-29T21:30:06.906Z,26.70
2018-06-29T21:32:34.452Z,27.53
2018-06-29T21:35:02.135Z,27.13
2018-06-29T21:37:29.695Z,27.47
2018-06-29T21:39:57.283Z,31.27
2018-06-29T21:42:24.861Z,23.53
2018-06-29T21:44:52.444Z,31.57
2018-06-29T21:47:19.980Z,26.60
2018-06-29T21:49:47.522Z,28.33
2018-06-29T21:52:15.125Z,28.13
2018-06-29T21:54:42.668Z,27.57
2018-06-29T21:57:10.208Z,21.20
2018-06-29T21:59:37.776Z,26.73
2018-06-29T22:02:05.633Z,24.87
2018-06-29T22:04:33.192Z,21.13
2018-06-29T22:07:00.744Z,21.37
2018-06-29T22:09:28.310Z,23.70
2018-06-29T22:11:55.913Z,21.43
2018-06-29T22:14:23.508Z,22.13
2018-06-29T22:16:51.052Z,21.27
2018-06-29T22:19:18.600Z,28.13
2018-06-29T22:21:46.158Z,21.50
2018-06-29T22:24:13.695Z,16.53
2018-06-29T22:26:41.228Z,14.50
2018-06-29T22:29:08.768Z,29.30
2018-06-29T22:31:36.305Z,20.93
2018-06-29T22:34:03.920Z,16.17
2018-06-29T22:36:31.485Z,17.67
2018-06-29T22:38:59.049Z,18.07
2018-06-29T22:41:26.632Z,16.13
2018-06-29T22:43:54.172Z,18.40
2018-06-29T22:46:21.760Z,18.50
2018-06-29T22:48:49.277Z,14.33
2018-06-29T22:51:16.828Z,16.00
2018-06-29T22:53:44.402Z,16.10
2018-06-29T22:56:11.968Z,17.50
2018-06-29T22:58:39.558Z,18.73
2018-06-29T23:01:07.138Z,17.37
2018-06-29T23:03:40.294Z,16.70
2018-06-29T23:06:07.926Z,17.40
2018-06-29T23:08:35.478Z,15.27
2018-06-29T23:11:03.041Z,19.77
2018-06-29T23:13:30.641Z,15.30
2018-06-29T23:15:58.197Z,15.37
2018-06-29T23:18:25.748Z,16.53
2018-06-29T23:20:53.296Z,13.07
2018-06-29T23:23:20.762Z,17.90
2018-06-29T23:25:48.302Z,15.10
2018-06-29T23:28:15.871Z,19.00
2018-06-29T23:30:43.428Z,14.60
2018-06-29T23:33:11.018Z,14.40
2018-06-29T23:35:39.412Z,16.60
2018-06-29T23:38:07.017Z,21.90
2018-06-29T23:40:34.615Z,16.43
2018-06-29T23:43:02.215Z,17.07
2018-06-29T23:45:29.849Z,14.37
2018-06-29T23:47:57.381Z,15.17
2018-06-29T23:50:24.939Z,11.13
2018-06-29T23:52:52.565Z,13.87
2018-06-29T23:55:20.073Z,16.20
2018-06-29T23:57:47.641Z,15.80
